sensor_id;sensor_type;location;lat;lon;timestamp;temperature;humidity
40556;DHT22;26250;45.422;11.100;2023-06-04T17:48:26;24.20;90.80
40556;DHT22;26250;45.422;11.100;2023-06-04T17:50:53;24.20;91.20
40556;DHT22;26250;45.422;11.100;2023-06-04T17:53:20;24.30;91.80
40556;DHT22;26250;45.422;11.100;2023-06-04T17:55:47;24.40;92.00
40556;DHT22;26250;45.422;11.100;2023-06-04T17:58:14;24.40;90.50
40556;DHT22;26250;45.422;11.100;2023-06-04T18:00:42;24.30;88.20
40556;DHT22;26250;45.422;11.100;2023-06-04T18:03:10;24.20;86.60
40556;DHT22;26250;45.422;11.100;2023-06-04T18:05:41;24.10;86.70
40556;DHT22;26250;45.422;11.100;2023-06-04T18:08:12;24.10;86.10
40556;DHT22;26250;45.422;11.100;2023-06-04T18:10:42;23.90;85.00
40556;DHT22;26250;45.422;11.100;2023-06-04T18:13:09;23.90;86.00
40556;DHT22;26250;45.422;11.100;2023-06-04T18:15:35;23.80;86.60
40556;DHT22;26250;45.422;11.100;2023-06-04T18:18:02;23.60;88.50
40556;DHT22;26250;45.422;11.100;2023-06-04T18:20:30;23.30;88.10
40556;DHT22;26250;45.422;11.100;2023-06-04T18:22:57;23.20;89.70
40556;DHT22;26250;45.422;11.100;2023-06-04T18:25:24;23.10;90.20
40556;DHT22;26250;45.422;11.100;2023-06-04T18:27:52;23.10;90.00
40556;DHT22;26250;45.422;11.100;2023-06-04T18:30:19;22.80;90.70
40556;DHT22;26250;45.422;11.100;2023-06-04T18:32:46;22.80;90.20
40556;DHT22;26250;45.422;11.100;2023-06-04T18:35:15;23.00;90.10
40556;DHT22;26250;45.422;11.100;2023-06-04T18:37:42;23.20;91.00
40556;DHT22;26250;45.422;11.100;2023-06-04T18:40:10;23.30;90.60
40556;DHT22;26250;45.422;11.100;2023-06-04T18:42:39;23.50;90.70
40556;DHT22;26250;45.422;11.100;2023-06-04T18:45:06;23.30;90.40
40556;DHT22;26250;45.422;11.100;2023-06-04T18:47:39;23.30;90.70
40556;DHT22;26250;45.422;11.100;2023-06-04T18:50:06;23.40;90.40
40556;DHT22;26250;45.422;11.100;2023-06-04T18:52:33;23.30;90.80
40556;DHT22;26250;45.422;11.100;2023-06-04T18:55:09;23.30;90.90
40556;DHT22;26250;45.422;11.100;2023-06-04T18:57:36;23.20;91.20
40556;DHT22;26250;45.422;11.100;2023-06-04T19:00:04;23.30;91.10
40556;DHT22;26250;45.422;11.100;2023-06-04T19:02:38;23.40;91.00
40556;DHT22;26250;45.422;11.100;2023-06-04T19:05:05;23.40;91.00
40556;DHT22;26250;45.422;11.100;2023-06-04T19:07:37;23.40;90.60
40556;DHT22;26250;45.422;11.100;2023-06-04T19:10:04;23.40;91.00
40556;DHT22;26250;45.422;11.100;2023-06-04T19:12:31;23.40;90.60
40556;DHT22;26250;45.422;11.100;2023-06-04T19:14:59;23.50;90.50
40556;DHT22;26250;45.422;11.100;2023-06-04T19:17:26;23.50;90.50
40556;DHT22;26250;45.422;11.100;2023-06-04T19:19:55;23.40;90.70
40556;DHT22;26250;45.422;11.100;2023-06-04T19:22:24;23.40;90.80
40556;DHT22;26250;45.422;11.100;2023-06-04T19:24:51;23.40;90.80
40556;DHT22;26250;45.422;11.100;2023-06-04T19:27:17;23.40;90.70
40556;DHT22;26250;45.422;11.100;2023-06-04T19:29:46;23.30;90.50
40556;DHT22;26250;45.422;11.100;2023-06-04T19:32:13;23.10;90.80
40556;DHT22;26250;45.422;11.100;2023-06-04T19:34:40;23.00;91.00
40556;DHT22;26250;45.422;11.100;2023-06-04T19:37:08;22.80;91.40
40556;DHT22;26250;45.422;11.100;2023-06-04T19:39:35;22.50;91.90
40556;DHT22;26250;45.422;11.100;2023-06-04T19:42:02;22.40;92.50
40556;DHT22;26250;45.422;11.100;2023-06-04T19:44:29;22.30;92.60
40556;DHT22;26250;45.422;11.100;2023-06-04T19:46:56;22.20;92.90
40556;DHT22;26250;45.422;11.100;2023-06-04T19:49:23;22.00;94.20
40556;DHT22;26250;45.422;11.100;2023-06-04T19:51:49;21.90;93.80
40556;DHT22;26250;45.422;11.100;2023-06-04T19:54:16;21.90;93.80
40556;DHT22;26250;45.422;11.100;2023-06-04T19:56:46;22.00;94.30
40556;DHT22;26250;45.422;11.100;2023-06-04T19:59:13;22.00;94.10
40556;DHT22;26250;45.422;11.100;2023-06-04T20:01:40;22.00;93.60
40556;DHT22;26250;45.422;11.100;2023-06-04T20:04:10;22.00;93.70
40556;DHT22;26250;45.422;11.100;2023-06-04T20:06:38;22.00;93.60
40556;DHT22;26250;45.422;11.100;2023-06-04T20:09:04;22.00;93.50
40556;DHT22;26250;45.422;11.100;2023-06-04T20:11:32;22.00;93.50
40556;DHT22;26250;45.422;11.100;2023-06-04T20:13:59;21.90;93.30
40556;DHT22;26250;45.422;11.100;2023-06-04T20:16:26;22.00;94.00
40556;DHT22;26250;45.422;11.100;2023-06-04T20:18:55;21.90;93.90
40556;DHT22;26250;45.422;11.100;2023-06-04T20:21:24;21.90;93.80
